Time;durP1;ratioP1;P1;durP2;ratioP2;P2;SDS_P1;SDS_P2;PMS_P1;PMS_P2;Temp;Humidity;BMP_temperature;BMP_pressure;BME280_temperature;BME280_humidity;BME280_pressure;Samples;Min_cycle;Max_cycle;Signal;HPM_P1;HPM_P2
2022/09/15 00:00:15;;;;;;;;;;;20.60;61.20;;;;;;5074204;28;20371;-68
2022/09/15 00:02:41;;;;;;;;;;;20.50;61.10;;;;;;5072711;28;19973;-68
2022/09/15 00:05:07;;;;;;;;;;;20.50;61.10;;;;;;5072789;28;20322;-68
2022/09/15 00:07:32;;;;;;;;;;;20.60;61.20;;;;;;5073082;28;19921;-68
2022/09/15 00:09:58;;;;;;;;;;;20.50;61.10;;;;;;5072866;28;20149;-68
2022/09/15 00:12:23;;;;;;;;;;;20.50;61.10;;;;;;5072714;28;19931;-68
2022/09/15 00:14:49;;;;;;;;;;;20.50;61.10;;;;;;5074034;28;19920;-68
2022/09/15 00:17:14;;;;;;;;;;;20.50;61.10;;;;;;5073885;28;20003;-68
2022/09/15 00:19:40;;;;;;;;;;;20.50;61.10;;;;;;5072976;28;20015;-68
2022/09/15 00:22:06;;;;;;;;;;;20.50;61.10;;;;;;5072394;28;19925;-68
2022/09/15 00:24:31;;;;;;;;;;;20.50;61.10;;;;;;5072580;28;19925;-68
2022/09/15 00:26:57;;;;;;;;;;;20.50;61.10;;;;;;5072374;28;20018;-68
2022/09/15 00:29:22;;;;;;;;;;;20.50;61.10;;;;;;5073699;28;19920;-68
2022/09/15 00:31:48;;;;;;;;;;;20.50;61.20;;;;;;5072571;28;19928;-68
2022/09/15 00:34:13;;;;;;;;;;;20.50;61.20;;;;;;5073691;28;19928;-68
2022/09/15 00:36:39;;;;;;;;;;;20.50;61.20;;;;;;5072168;28;20327;-68
2022/09/15 00:39:04;;;;;;;;;;;20.50;61.20;;;;;;5073295;28;19973;-68
2022/09/15 00:41:30;;;;;;;;;;;20.50;61.10;;;;;;5073702;28;19974;-68
2022/09/15 00:46:39;;;;;;;;;;;20.50;62.00;;;;;;5090061;28;19916;-68
2022/09/15 00:49:07;;;;;;;;;;;20.50;61.20;;;;;;5088534;28;19924;-68
2022/09/15 00:51:39;;;;;;;;;;;20.50;61.20;;;;;;5088842;28;19924;-68
2022/09/15 00:54:08;;;;;;;;;;;20.50;61.20;;;;;;5088501;28;19920;-68
2022/09/15 00:56:34;;;;;;;;;;;20.50;61.20;;;;;;5105518;28;20016;-68
2022/09/15 00:59:02;;;;;;;;;;;20.40;61.20;;;;;;5088655;28;19920;-68
2022/09/15 01:01:29;;;;;;;;;;;20.40;61.20;;;;;;5088411;28;19920;-68
2022/09/15 01:03:55;;;;;;;;;;;20.50;61.20;;;;;;5088570;28;19920;-68
2022/09/15 01:06:24;;;;;;;;;;;20.50;61.30;;;;;;5088253;28;20313;-68
2022/09/15 01:11:30;;;;;;;;;;;20.40;61.20;;;;;;5090015;28;19912;-68
2022/09/15 01:13:55;;;;;;;;;;;20.40;61.20;;;;;;5089886;28;19927;-68
2022/09/15 01:16:41;;;;;;;;;;;20.40;61.20;;;;;;5088595;28;19924;-68
2022/09/15 01:19:26;;;;;;;;;;;20.40;61.20;;;;;;5089496;28;19943;-68
2022/09/15 01:22:02;;;;;;;;;;;20.40;61.20;;;;;;5088259;28;19970;-68
2022/09/15 01:24:38;;;;;;;;;;;20.40;61.20;;;;;;5088663;28;19969;-68
2022/09/15 01:35:27;;;;;;;;;;;20.40;61.20;;;;;;5089826;28;20416;-68
2022/09/15 01:38:13;;;;;;;;;;;20.40;61.20;;;;;;5088354;28;19921;-68
2022/09/15 01:40:43;;;;;;;;;;;20.40;61.30;;;;;;5088769;28;19920;-68
2022/09/15 01:43:09;;;;;;;;;;;20.40;61.20;;;;;;5089083;28;19947;-68
2022/09/15 01:45:37;;;;;;;;;;;20.40;61.30;;;;;;5089718;28;19920;-68
2022/09/15 01:48:04;;;;;;;;;;;20.40;61.30;;;;;;5105401;28;20414;-68
2022/09/15 01:50:32;;;;;;;;;;;20.40;61.20;;;;;;5088611;28;19920;-68
2022/09/15 01:53:00;;;;;;;;;;;20.40;61.20;;;;;;5088372;28;20078;-68
2022/09/15 01:55:30;;;;;;;;;;;20.40;61.30;;;;;;5088232;28;19920;-68
2022/09/15 01:57:56;;;;;;;;;;;20.40;61.30;;;;;;5105497;28;19920;-68
2022/09/15 02:00:22;;;;;;;;;;;20.40;61.30;;;;;;5088396;28;19927;-68
2022/09/15 02:02:51;;;;;;;;;;;20.40;61.30;;;;;;5088068;28;19920;-68
2022/09/15 02:05:19;;;;;;;;;;;20.40;61.30;;;;;;5087817;28;20074;-68
2022/09/15 02:10:47;;;;;;;;;;;20.30;61.30;;;;;;5128160;27;1848936;-68
2022/09/15 02:13:15;;;;;;;;;;;20.40;61.40;;;;;;5174151;27;19919;-68
2022/09/15 02:15:47;;;;;;;;;;;20.30;61.30;;;;;;5174621;27;20001;-68
2022/09/15 02:18:16;;;;;;;;;;;20.40;61.40;;;;;;5174354;27;19919;-71
2022/09/15 02:20:48;;;;;;;;;;;20.30;61.30;;;;;;5174190;27;19967;-72
2022/09/15 02:23:17;;;;;;;;;;;20.30;61.40;;;;;;5174531;27;20011;-68
2022/09/15 02:25:46;;;;;;;;;;;20.30;61.40;;;;;;5174107;27;19919;-68
2022/09/15 02:28:13;;;;;;;;;;;20.30;61.40;;;;;;5174296;27;20381;-68
2022/09/15 02:30:40;;;;;;;;;;;20.30;61.40;;;;;;5173997;27;19968;-68
2022/09/15 02:33:09;;;;;;;;;;;20.30;61.40;;;;;;5193057;27;19918;-68
2022/09/15 02:35:35;;;;;;;;;;;20.30;61.40;;;;;;5174307;27;19919;-68
2022/09/15 02:38:01;;;;;;;;;;;20.30;61.40;;;;;;5174244;27;19919;-68
2022/09/15 02:40:27;;;;;;;;;;;20.30;61.50;;;;;;5173934;27;19918;-68
2022/09/15 02:42:54;;;;;;;;;;;20.30;61.50;;;;;;5174113;27;19925;-68
2022/09/15 02:45:20;;;;;;;;;;;20.30;61.40;;;;;;5192859;27;19971;-68
2022/09/15 02:47:46;;;;;;;;;;;20.20;61.40;;;;;;5174096;27;20353;-68
2022/09/15 02:50:11;;;;;;;;;;;20.30;61.40;;;;;;5170752;27;19970;-68
2022/09/15 02:52:37;;;;;;;;;;;20.30;61.40;;;;;;5152944;27;19919;-68
2022/09/15 02:55:03;;;;;;;;;;;20.30;61.40;;;;;;5152732;27;19926;-68
2022/09/15 02:57:29;;;;;;;;;;;20.30;61.50;;;;;;5171247;27;19934;-68
2022/09/15 03:00:25;;;;;;;;;;;20.30;61.50;;;;;;5152815;27;20035;-71
2022/09/15 03:02:40;;;;;;;;;;;20.30;61.50;;;;;;5171059;27;20354;-68
2022/09/15 03:05:07;;;;;;;;;;;20.30;61.50;;;;;;5171257;27;19923;-68
2022/09/15 03:07:32;;;;;;;;;;;20.30;61.50;;;;;;5152785;27;20035;-68
2022/09/15 03:09:58;;;;;;;;;;;20.30;61.50;;;;;;5152077;27;20028;-69
2022/09/15 03:12:24;;;;;;;;;;;20.30;61.50;;;;;;5152283;27;19963;-68
2022/09/15 03:14:50;;;;;;;;;;;20.30;61.50;;;;;;5171198;27;19923;-68
2022/09/15 03:17:16;;;;;;;;;;;20.30;61.50;;;;;;5152566;27;19919;-68
2022/09/15 03:19:41;;;;;;;;;;;20.30;61.60;;;;;;5151111;27;20096;-68
2022/09/15 03:22:08;;;;;;;;;;;20.20;61.40;;;;;;5138073;27;19998;-68
2022/09/15 03:24:34;;;;;;;;;;;20.30;61.50;;;;;;5138335;27;19926;-68
2022/09/15 03:26:59;;;;;;;;;;;20.30;61.50;;;;;;5138366;27;19919;-68
2022/09/15 03:29:25;;;;;;;;;;;20.20;61.50;;;;;;5156845;27;19946;-68
2022/09/15 03:31:50;;;;;;;;;;;20.20;61.40;;;;;;5156892;27;19958;-68
2022/09/15 03:34:16;;;;;;;;;;;20.20;61.40;;;;;;5138214;27;19926;-68
2022/09/15 03:36:42;;;;;;;;;;;20.20;61.50;;;;;;5138473;27;19926;-68
2022/09/15 03:39:08;;;;;;;;;;;20.20;61.50;;;;;;5138093;27;19930;-68
2022/09/15 03:41:33;;;;;;;;;;;20.20;61.50;;;;;;5156529;27;19919;-68
2022/09/15 03:43:59;;;;;;;;;;;20.20;61.50;;;;;;5156570;27;20335;-68
2022/09/15 03:46:24;;;;;;;;;;;20.20;61.50;;;;;;5138292;27;19919;-68
2022/09/15 03:48:50;;;;;;;;;;;20.20;61.50;;;;;;5156408;27;20112;-71
2022/09/15 03:51:15;;;;;;;;;;;20.20;61.50;;;;;;5138210;27;19919;-71
2022/09/15 03:53:41;;;;;;;;;;;20.20;61.50;;;;;;5138047;27;19984;-68
2022/09/15 03:58:48;;;;;;;;;;;20.20;61.50;;;;;;5089847;28;19913;-68
2022/09/15 04:01:14;;;;;;;;;;;20.20;61.40;;;;;;5089875;28;19926;-68
2022/09/15 04:03:39;;;;;;;;;;;20.20;61.50;;;;;;5088801;28;19950;-68
2022/09/15 04:06:05;;;;;;;;;;;20.20;62.20;;;;;;5089687;28;20372;-68
2022/09/15 04:08:30;;;;;;;;;;;20.20;61.50;;;;;;5088848;28;20119;-68
2022/09/15 04:10:56;;;;;;;;;;;20.20;61.50;;;;;;5088593;28;20288;-68
2022/09/15 04:13:22;;;;;;;;;;;20.20;61.50;;;;;;5088680;28;20364;-68
2022/09/15 04:15:56;;;;;;;;;;;20.20;61.60;;;;;;5088279;28;20361;-68
2022/09/15 04:18:21;;;;;;;;;;;20.20;61.50;;;;;;5088223;28;19924;-68
2022/09/15 04:20:47;;;;;;;;;;;20.20;61.50;;;;;;5088229;28;19965;-68
2022/09/15 04:23:12;;;;;;;;;;;20.20;61.50;;;;;;5089489;28;19926;-67
2022/09/15 04:25:38;;;;;;;;;;;20.20;61.60;;;;;;5088058;28;19943;-68
2022/09/15 04:28:03;;;;;;;;;;;20.20;61.50;;;;;;5089560;28;19956;-68
2022/09/15 04:30:29;;;;;;;;;;;20.20;61.50;;;;;;5089344;28;20368;-68
2022/09/15 04:32:55;;;;;;;;;;;20.20;61.50;;;;;;5087638;28;19956;-68
2022/09/15 04:35:20;;;;;;;;;;;20.20;61.60;;;;;;5088961;28;20395;-68
2022/09/15 04:37:46;;;;;;;;;;;20.20;61.50;;;;;;5087881;28;20035;-68
2022/09/15 04:40:11;;;;;;;;;;;20.20;61.50;;;;;;5070822;28;19963;-68
2022/09/15 04:42:37;;;;;;;;;;;20.20;61.50;;;;;;5088161;28;19966;-68
2022/09/15 04:45:03;;;;;;;;;;;20.20;61.50;;;;;;5087767;28;19927;-68
2022/09/15 04:47:28;;;;;;;;;;;20.20;61.50;;;;;;5089003;28;19920;-68
2022/09/15 04:49:54;;;;;;;;;;;20.20;62.30;;;;;;5087634;28;20384;-68
2022/09/15 04:52:20;;;;;;;;;;;20.20;61.50;;;;;;5087937;28;19924;-68
2022/09/15 04:54:45;;;;;;;;;;;20.20;61.50;;;;;;5087664;28;19920;-68
2022/09/15 04:57:11;;;;;;;;;;;20.20;61.50;;;;;;5087164;28;19924;-68
2022/09/15 04:59:36;;;;;;;;;;;20.20;61.50;;;;;;5089011;28;20256;-68
2022/09/15 05:02:02;;;;;;;;;;;20.20;61.50;;;;;;5087877;28;20360;-68
2022/09/15 05:04:27;;;;;;;;;;;20.10;61.50;;;;;;5088725;28;20384;-68
2022/09/15 05:06:53;;;;;;;;;;;20.20;61.50;;;;;;5087474;28;19929;-68
2022/09/15 05:09:18;;;;;;;;;;;20.20;61.50;;;;;;5078653;28;19986;-68
2022/09/15 05:11:44;;;;;;;;;;;20.20;61.50;;;;;;5074994;28;19921;-68
2022/09/15 05:14:10;;;;;;;;;;;20.20;61.40;;;;;;5073714;28;19921;-68
2022/09/15 05:16:35;;;;;;;;;;;20.20;61.40;;;;;;5073798;28;19928;-68
2022/09/15 05:19:03;;;;;;;;;;;20.10;61.40;;;;;;5074979;28;20289;-68
2022/09/15 05:21:29;;;;;;;;;;;20.20;61.50;;;;;;5073518;28;20406;-68
2022/09/15 05:23:54;;;;;;;;;;;20.20;61.50;;;;;;5074902;28;19921;-68
2022/09/15 05:26:22;;;;;;;;;;;20.20;61.40;;;;;;5072572;28;19931;-68
2022/09/15 05:28:48;;;;;;;;;;;20.10;61.40;;;;;;5072625;28;20355;-71
2022/09/15 05:31:16;;;;;;;;;;;20.10;61.30;;;;;;5070449;28;19978;-74
2022/09/15 05:33:42;;;;;;;;;;;20.20;61.50;;;;;;5082628;28;19921;-71
2022/09/15 05:36:08;;;;;;;;;;;20.20;61.40;;;;;;5072921;28;19920;-72
2022/09/15 05:38:34;;;;;;;;;;;20.20;61.30;;;;;;5072229;28;20295;-73
2022/09/15 05:41:02;;;;;;;;;;;20.30;61.30;;;;;;5072574;28;20356;-73
2022/09/15 05:43:29;;;;;;;;;;;20.20;60.80;;;;;;5072932;28;19924;-74
2022/09/15 05:45:54;;;;;;;;;;;20.30;60.70;;;;;;5072400;28;19973;-75
2022/09/15 05:48:20;;;;;;;;;;;20.30;60.50;;;;;;5072815;28;19928;-71
2022/09/15 05:50:48;;;;;;;;;;;20.30;60.30;;;;;;5070723;28;20342;-71
2022/09/15 05:53:14;;;;;;;;;;;20.30;60.20;;;;;;5070882;28;19943;-72
2022/09/15 05:55:40;;;;;;;;;;;20.30;60.10;;;;;;5070024;28;19931;-68
2022/09/15 05:58:05;;;;;;;;;;;20.30;60.20;;;;;;5086288;28;19924;-69
2022/09/15 06:00:31;;;;;;;;;;;20.30;60.00;;;;;;5070404;28;20458;-70
2022/09/15 06:02:57;;;;;;;;;;;20.30;60.10;;;;;;5079172;28;20365;-69
2022/09/15 06:05:22;;;;;;;;;;;20.40;60.00;;;;;;5070049;28;19920;-70
2022/09/15 06:07:48;;;;;;;;;;;20.40;60.00;;;;;;5075985;28;19920;-70
2022/09/15 06:10:13;;;;;;;;;;;20.40;60.00;;;;;;5086927;28;19986;-68
2022/09/15 06:12:39;;;;;;;;;;;20.40;59.90;;;;;;5089850;28;20023;-68
2022/09/15 06:15:05;;;;;;;;;;;20.40;59.70;;;;;;5092186;28;20403;-68
2022/09/15 06:17:31;;;;;;;;;;;20.40;59.60;;;;;;5067977;28;20001;-69
2022/09/15 06:19:57;;;;;;;;;;;20.40;59.40;;;;;;5062360;28;19935;-68
2022/09/15 06:22:23;;;;;;;;;;;20.40;59.30;;;;;;5075954;28;19924;-68
2022/09/15 06:24:48;;;;;;;;;;;20.40;59.30;;;;;;5054856;28;19993;-68
2022/09/15 06:27:14;;;;;;;;;;;20.40;59.30;;;;;;5076171;28;19963;-69
2022/09/15 06:29:39;;;;;;;;;;;20.40;59.10;;;;;;5072712;28;19928;-70
2022/09/15 06:32:05;;;;;;;;;;;20.40;59.20;;;;;;5073710;28;19951;-69
2022/09/15 06:34:31;;;;;;;;;;;20.50;59.10;;;;;;5039994;28;20039;-69
2022/09/15 06:36:58;;;;;;;;;;;20.50;59.00;;;;;;5069020;28;19935;-69
2022/09/15 06:39:24;;;;;;;;;;;20.50;59.70;;;;;;5056072;28;19924;-68
2022/09/15 06:41:50;;;;;;;;;;;20.50;58.80;;;;;;5071670;28;20396;-69
2022/09/15 06:44:15;;;;;;;;;;;20.50;58.80;;;;;;5073099;28;19924;-70
2022/09/15 06:46:41;;;;;;;;;;;20.50;58.90;;;;;;5054152;28;19920;-70
2022/09/15 06:49:06;;;;;;;;;;;20.50;58.80;;;;;;5064370;28;19963;-70
2022/09/15 06:51:34;;;;;;;;;;;20.60;58.90;;;;;;5055870;28;19932;-71
2022/09/15 06:54:00;;;;;;;;;;;20.70;59.10;;;;;;5061114;28;19931;-77
2022/09/15 06:56:26;;;;;;;;;;;20.70;59.10;;;;;;5052369;28;20011;-79
2022/09/15 06:58:52;;;;;;;;;;;20.70;59.10;;;;;;5053594;28;19978;-70
2022/09/15 07:01:19;;;;;;;;;;;20.70;59.30;;;;;;5069788;28;19928;-69
2022/09/15 07:03:45;;;;;;;;;;;20.80;59.30;;;;;;5071869;28;20388;-74
2022/09/15 07:06:11;;;;;;;;;;;20.90;59.40;;;;;;5054019;28;19979;-68
2022/09/15 07:08:37;;;;;;;;;;;20.90;59.50;;;;;;5072311;28;20582;-68
2022/09/15 07:11:03;;;;;;;;;;;21.00;59.60;;;;;;5074348;28;20598;-67
2022/09/15 07:13:29;;;;;;;;;;;21.00;59.60;;;;;;5057964;28;19920;-70
2022/09/15 07:15:55;;;;;;;;;;;21.00;59.70;;;;;;5051168;28;19954;-68
2022/09/15 07:18:21;;;;;;;;;;;21.10;59.80;;;;;;5052403;28;19931;-68
2022/09/15 07:20:47;;;;;;;;;;;21.10;59.50;;;;;;5056012;28;19928;-70
2022/09/15 07:23:12;;;;;;;;;;;21.10;59.50;;;;;;5059785;28;19928;-69
2022/09/15 07:25:42;;;;;;;;;;;21.20;59.60;;;;;;5071741;28;20655;-70
2022/09/15 07:28:09;;;;;;;;;;;21.10;59.50;;;;;;5059745;28;20352;-72
2022/09/15 07:30:34;;;;;;;;;;;21.20;59.50;;;;;;5073457;28;19923;-68
2022/09/15 07:33:00;;;;;;;;;;;21.10;59.40;;;;;;5055670;28;20671;-68
2022/09/15 07:35:25;;;;;;;;;;;21.20;59.50;;;;;;5071970;28;19925;-69
2022/09/15 07:37:51;;;;;;;;;;;21.20;59.60;;;;;;5069709;28;20284;-71
2022/09/15 07:40:17;;;;;;;;;;;21.20;59.60;;;;;;5063104;28;19951;-72
2022/09/15 07:42:43;;;;;;;;;;;21.20;59.60;;;;;;5052686;28;19926;-67
2022/09/15 07:45:09;;;;;;;;;;;21.20;59.60;;;;;;5053173;28;19938;-68
2022/09/15 07:47:35;;;;;;;;;;;21.20;59.40;;;;;;5051091;28;20015;-74
2022/09/15 07:50:00;;;;;;;;;;;21.20;60.00;;;;;;5053048;28;19920;-70
2022/09/15 07:52:26;;;;;;;;;;;21.30;59.10;;;;;;5053715;28;19920;-77
2022/09/15 07:54:51;;;;;;;;;;;21.30;59.30;;;;;;5058381;28;19959;-75
2022/09/15 07:57:17;;;;;;;;;;;21.30;59.30;;;;;;5052776;28;20428;-74
2022/09/15 07:59:42;;;;;;;;;;;21.30;59.20;;;;;;5068042;28;19921;-75
2022/09/15 08:02:14;;;;;;;;;;;21.30;59.00;;;;;;5071616;28;20007;-75
2022/09/15 08:04:39;;;;;;;;;;;21.30;59.00;;;;;;5057979;28;20396;-80
2022/09/15 08:07:05;;;;;;;;;;;21.30;59.20;;;;;;5075778;28;19924;-69
2022/09/15 08:09:30;;;;;;;;;;;21.30;59.10;;;;;;5053064;28;19997;-70
2022/09/15 08:11:56;;;;;;;;;;;21.40;59.10;;;;;;5062009;28;20421;-74
2022/09/15 08:14:21;;;;;;;;;;;21.40;59.00;;;;;;5055130;28;19962;-72
2022/09/15 08:16:47;;;;;;;;;;;21.40;59.10;;;;;;5057460;28;19932;-72
2022/09/15 08:19:12;;;;;;;;;;;21.40;59.10;;;;;;5055634;28;20494;-71
2022/09/15 08:21:39;;;;;;;;;;;21.40;59.20;;;;;;5054792;28;19963;-74
2022/09/15 08:24:05;;;;;;;;;;;21.40;59.30;;;;;;5056896;28;20287;-73
2022/09/15 08:26:30;;;;;;;;;;;21.40;59.40;;;;;;5053648;28;19928;-74
2022/09/15 08:28:56;;;;;;;;;;;21.40;59.50;;;;;;5057496;28;20042;-74
2022/09/15 08:31:23;;;;;;;;;;;21.40;59.50;;;;;;5057156;28;20025;-72
2022/09/15 08:33:50;;;;;;;;;;;21.40;59.50;;;;;;5059556;28;19967;-70
2022/09/15 08:36:16;;;;;;;;;;;21.40;59.70;;;;;;5076580;28;19920;-73
2022/09/15 08:38:43;;;;;;;;;;;21.40;59.60;;;;;;5055520;28;19935;-72
2022/09/15 08:47:06;;;;;;;;;;;21.40;59.10;;;;;;5059027;28;20453;-72
2022/09/15 08:49:36;;;;;;;;;;;21.40;59.10;;;;;;5056713;28;20008;-70
2022/09/15 08:52:05;;;;;;;;;;;21.40;59.00;;;;;;5069690;28;19951;-72
2022/09/15 08:54:31;;;;;;;;;;;21.30;58.80;;;;;;5053586;28;19929;-74
2022/09/15 08:56:57;;;;;;;;;;;21.40;59.10;;;;;;5051554;28;19929;-70
2022/09/15 08:59:24;;;;;;;;;;;21.40;59.00;;;;;;5050913;28;20011;-70
2022/09/15 09:02:06;;;;;;;;;;;21.40;59.00;;;;;;5051024;28;19960;-72
2022/09/15 09:07:21;;;;;;;;;;;21.50;59.00;;;;;;5076164;27;19946;-67
2022/09/15 09:12:37;;;;;;;;;;;21.50;58.60;;;;;;5071408;27;19947;-71
2022/09/15 09:15:22;;;;;;;;;;;21.50;58.60;;;;;;5071298;28;19924;-72
2022/09/15 09:18:08;;;;;;;;;;;21.50;58.60;;;;;;5059989;28;20011;-69
2022/09/15 09:20:40;;;;;;;;;;;21.50;58.60;;;;;;5082761;28;19929;-70
2022/09/15 09:23:09;;;;;;;;;;;21.50;58.30;;;;;;5076669;28;19931;-69
2022/09/15 09:25:35;;;;;;;;;;;21.50;58.30;;;;;;5069605;28;19920;-69
2022/09/15 09:28:01;;;;;;;;;;;21.60;58.00;;;;;;5109280;27;19956;-71
2022/09/15 09:30:29;;;;;;;;;;;21.60;57.90;;;;;;5079122;28;20162;-70
2022/09/15 09:35:44;;;;;;;;;;;21.50;58.00;;;;;;5067410;28;19946;-72
2022/09/15 09:38:10;;;;;;;;;;;21.70;58.30;;;;;;5062204;28;19925;-67
2022/09/15 09:40:36;;;;;;;;;;;21.60;58.10;;;;;;5058621;28;20048;-66
2022/09/15 09:43:01;;;;;;;;;;;21.60;57.90;;;;;;5061640;28;19925;-68
2022/09/15 09:45:27;;;;;;;;;;;21.60;57.60;;;;;;5061517;28;19936;-67
2022/09/15 09:47:58;;;;;;;;;;;21.60;57.40;;;;;;5075517;28;19929;-73
2022/09/15 09:53:30;;;;;;;;;;;21.70;57.50;;;;;;5065197;28;19927;-69
2022/09/15 09:56:16;;;;;;;;;;;21.70;57.20;;;;;;5054395;28;20945;-65
2022/09/15 09:58:42;;;;;;;;;;;21.70;57.20;;;;;;5069517;28;19951;-73
2022/09/15 10:01:11;;;;;;;;;;;21.70;56.60;;;;;;5051474;28;20553;-71
2022/09/15 10:03:37;;;;;;;;;;;21.70;57.00;;;;;;5057719;28;20430;-70
2022/09/15 10:08:58;;;;;;;;;;;21.80;56.70;;;;;;5087619;27;19931;-70
2022/09/15 10:11:44;;;;;;;;;;;21.80;56.70;;;;;;5123525;27;19928;-78
2022/09/15 10:19:56;;;;;;;;;;;21.80;55.80;;;;;;5086448;27;19934;-70
2022/09/15 10:22:30;;;;;;;;;;;21.80;55.70;;;;;;5122364;27;19996;-70
2022/09/15 10:24:57;;;;;;;;;;;21.80;55.80;;;;;;5087478;28;19920;-70
2022/09/15 10:27:27;;;;;;;;;;;21.80;55.40;;;;;;5089468;28;19920;-70
2022/09/15 10:29:53;;;;;;;;;;;21.80;55.00;;;;;;5086575;28;19920;-70
2022/09/15 10:32:34;;;;;;;;;;;21.80;54.70;;;;;;5081852;28;19924;-70
2022/09/15 10:35:02;;;;;;;;;;;21.80;54.20;;;;;;5122377;27;19920;-71
2022/09/15 10:37:38;;;;;;;;;;;21.80;55.10;;;;;;5091758;28;20391;-68
2022/09/15 10:40:16;;;;;;;;;;;21.80;54.70;;;;;;5076754;28;19964;-69
2022/09/15 10:43:01;;;;;;;;;;;21.90;54.60;;;;;;5077263;28;20323;-69
2022/09/15 10:45:46;;;;;;;;;;;21.90;54.40;;;;;;5073532;28;19936;-70
2022/09/15 10:48:18;;;;;;;;;;;21.80;54.20;;;;;;5073333;28;19971;-69
2022/09/15 10:53:51;;;;;;;;;;;21.80;53.80;;;;;;5081331;27;19948;-73
2022/09/15 10:56:37;;;;;;;;;;;21.80;53.60;;;;;;5063152;28;20022;-73
2022/09/15 11:01:51;;;;;;;;;;;21.80;53.80;;;;;;5060612;28;19927;-69
2022/09/15 11:09:56;;;;;;;;;;;21.80;54.10;;;;;;5079579;27;19913;-70
2022/09/15 11:18:06;;;;;;;;;;;21.90;54.30;;;;;;5060165;27;20282;-70
2022/09/15 11:23:20;;;;;;;;;;;21.80;54.60;;;;;;5062561;28;19925;-69
2022/09/15 11:25:48;;;;;;;;;;;21.90;54.80;;;;;;5033685;28;19969;-70
2022/09/15 11:28:20;;;;;;;;;;;21.90;54.90;;;;;;5044612;28;20369;-67
2022/09/15 11:31:05;;;;;;;;;;;21.90;54.80;;;;;;5027579;28;19947;-69
2022/09/15 11:33:36;;;;;;;;;;;21.90;54.70;;;;;;5032647;28;20324;-70
2022/09/15 11:36:13;;;;;;;;;;;22.00;55.40;;;;;;5035806;28;20278;-69
2022/09/15 11:44:31;;;;;;;;;;;22.00;55.20;;;;;;5074047;27;19924;-70
2022/09/15 11:47:03;;;;;;;;;;;22.00;54.90;;;;;;5071042;28;19933;-73
2022/09/15 11:52:21;;;;;;;;;;;22.00;54.80;;;;;;5082285;27;19920;-71
2022/09/15 11:54:52;;;;;;;;;;;22.00;54.90;;;;;;5077352;28;19924;-75
2022/09/15 11:57:22;;;;;;;;;;;22.00;55.00;;;;;;5074691;28;19943;-76
2022/09/15 11:59:54;;;;;;;;;;;21.90;55.10;;;;;;5072090;28;20531;-72
2022/09/15 12:02:39;;;;;;;;;;;22.00;55.20;;;;;;5071694;28;20547;-73
2022/09/15 12:05:15;;;;;;;;;;;21.90;55.20;;;;;;5073738;28;19927;-75
2022/09/15 12:07:44;;;;;;;;;;;21.90;55.30;;;;;;5107578;28;19932;-68
2022/09/15 12:10:16;;;;;;;;;;;22.00;55.10;;;;;;5108776;27;19947;-68
2022/09/15 12:12:42;;;;;;;;;;;21.90;54.90;;;;;;5077682;28;19971;-68
2022/09/15 12:15:13;;;;;;;;;;;21.90;54.90;;;;;;5070845;28;20294;-68
2022/09/15 12:17:44;;;;;;;;;;;21.90;54.80;;;;;;5065046;28;20292;-67
2022/09/15 12:20:16;;;;;;;;;;;21.90;54.60;;;;;;5063548;28;20688;-66
2022/09/15 12:25:24;;;;;;;;;;;21.90;54.50;;;;;;5070602;27;20144;-65
2022/09/15 12:28:10;;;;;;;;;;;21.90;54.60;;;;;;5068591;28;19924;-65
2022/09/15 12:30:37;;;;;;;;;;;22.00;54.80;;;;;;5062788;28;20362;-66
2022/09/15 12:33:23;;;;;;;;;;;22.00;54.80;;;;;;5064763;28;19935;-66
2022/09/15 12:35:48;;;;;;;;;;;22.00;55.10;;;;;;5064504;28;19928;-67
2022/09/15 12:38:14;;;;;;;;;;;22.00;54.90;;;;;;5062424;28;19932;-67
2022/09/15 12:40:40;;;;;;;;;;;22.00;54.80;;;;;;5061426;28;19975;-67
2022/09/15 12:43:22;;;;;;;;;;;22.00;54.90;;;;;;5066933;28;20493;-67
2022/09/15 12:45:57;;;;;;;;;;;22.00;54.80;;;;;;5066720;28;20427;-70
2022/09/15 12:48:24;;;;;;;;;;;22.00;54.90;;;;;;5067536;28;20019;-66
2022/09/15 12:50:58;;;;;;;;;;;22.00;55.10;;;;;;5066153;28;20298;-66
2022/09/15 12:53:26;;;;;;;;;;;22.00;55.10;;;;;;5072377;28;19936;-75
2022/09/15 12:56:00;;;;;;;;;;;22.00;55.30;;;;;;5066585;28;19925;-68
2022/09/15 12:58:46;;;;;;;;;;;22.10;55.40;;;;;;5065485;28;20622;-67
2022/09/15 13:06:34;;;;;;;;;;;22.00;55.10;;;;;;5086591;27;1861477;-66
2022/09/15 13:11:41;;;;;;;;;;;22.10;55.10;;;;;;5063657;28;19931;-67
2022/09/15 13:14:13;;;;;;;;;;;22.10;54.90;;;;;;5053496;28;19921;-67
2022/09/15 13:19:23;;;;;;;;;;;22.10;54.60;;;;;;5069040;28;19917;-65
2022/09/15 13:27:27;;;;;;;;;;;22.10;54.60;;;;;;5061632;28;20559;-65
2022/09/15 13:29:57;;;;;;;;;;;22.00;54.40;;;;;;5033945;28;20301;-65
2022/09/15 13:32:43;;;;;;;;;;;22.10;54.30;;;;;;5040793;28;19978;-65
2022/09/15 13:35:20;;;;;;;;;;;22.00;54.20;;;;;;5034899;28;19968;-66
2022/09/15 13:38:05;;;;;;;;;;;22.00;54.10;;;;;;5057056;28;20305;-65
2022/09/15 13:40:40;;;;;;;;;;;22.00;54.20;;;;;;5039076;28;19920;-65
2022/09/15 13:43:27;;;;;;;;;;;22.00;54.20;;;;;;5038379;28;19949;-66
2022/09/15 13:51:18;;;;;;;;;;;21.90;54.20;;;;;;5056462;28;19931;-71
2022/09/15 13:53:48;;;;;;;;;;;22.00;54.50;;;;;;5054748;28;19971;-69
2022/09/15 13:56:18;;;;;;;;;;;21.90;54.50;;;;;;5069804;28;19939;-67
2022/09/15 13:58:44;;;;;;;;;;;21.90;54.70;;;;;;5053871;28;20373;-67
2022/09/15 14:01:10;;;;;;;;;;;21.90;54.90;;;;;;5049872;28;19928;-74
2022/09/15 14:06:24;;;;;;;;;;;21.90;55.30;;;;;;5089634;27;19920;-70
2022/09/15 14:08:54;;;;;;;;;;;21.90;55.40;;;;;;5067870;28;19931;-68
2022/09/15 14:11:22;;;;;;;;;;;21.90;55.60;;;;;;5073687;28;20192;-71
2022/09/15 14:13:49;;;;;;;;;;;21.90;55.70;;;;;;5072257;28;20015;-68
2022/09/15 14:16:32;;;;;;;;;;;21.90;55.90;;;;;;5074996;28;19978;-67
2022/09/15 14:18:58;;;;;;;;;;;21.90;56.80;;;;;;5066207;28;19974;-70
2022/09/15 14:21:27;;;;;;;;;;;21.90;56.20;;;;;;5057991;28;19928;-69
2022/09/15 14:23:53;;;;;;;;;;;21.90;56.30;;;;;;5060751;28;19951;-67
2022/09/15 14:26:21;;;;;;;;;;;21.80;56.40;;;;;;5077657;28;19943;-70
2022/09/15 14:28:48;;;;;;;;;;;21.80;56.30;;;;;;5062557;28;19926;-67
2022/09/15 14:31:14;;;;;;;;;;;21.80;56.40;;;;;;5077168;28;19948;-67
2022/09/15 14:33:40;;;;;;;;;;;21.80;56.50;;;;;;5059874;28;19920;-67
2022/09/15 14:36:13;;;;;;;;;;;21.80;56.60;;;;;;5082359;28;19927;-68
2022/09/15 14:38:39;;;;;;;;;;;21.70;56.60;;;;;;5068723;28;19943;-67
2022/09/15 14:41:04;;;;;;;;;;;21.70;56.70;;;;;;5076423;28;20380;-68
2022/09/15 14:43:34;;;;;;;;;;;21.70;56.80;;;;;;5078476;28;20002;-68
2022/09/15 14:46:17;;;;;;;;;;;21.60;56.70;;;;;;5088249;28;19932;-69
2022/09/15 14:48:42;;;;;;;;;;;21.60;56.80;;;;;;5073693;28;19921;-69
2022/09/15 14:51:18;;;;;;;;;;;21.60;56.90;;;;;;5075669;28;20291;-69
2022/09/15 14:53:44;;;;;;;;;;;21.60;56.90;;;;;;5061018;28;20513;-68
2022/09/15 14:56:15;;;;;;;;;;;21.60;56.90;;;;;;5088150;28;19946;-68
2022/09/15 14:58:47;;;;;;;;;;;21.60;56.90;;;;;;5086379;28;19925;-68
2022/09/15 15:01:15;;;;;;;;;;;21.50;56.90;;;;;;5076719;28;19924;-68
2022/09/15 15:06:24;;;;;;;;;;;21.50;56.90;;;;;;5071584;28;19935;-69
2022/09/15 15:08:53;;;;;;;;;;;21.60;56.90;;;;;;5079098;28;20381;-68
2022/09/15 15:11:19;;;;;;;;;;;21.50;56.90;;;;;;5074111;28;19921;-68
2022/09/15 15:13:47;;;;;;;;;;;21.50;56.80;;;;;;5083283;28;20003;-69
2022/09/15 15:16:19;;;;;;;;;;;21.50;56.80;;;;;;5075539;28;20269;-69
2022/09/15 15:18:44;;;;;;;;;;;21.50;56.80;;;;;;5073212;28;19947;-68
2022/09/15 15:21:30;;;;;;;;;;;21.60;56.80;;;;;;5074430;28;19921;-69
2022/09/15 15:23:55;;;;;;;;;;;21.50;56.70;;;;;;5084783;28;20261;-68
2022/09/15 15:26:25;;;;;;;;;;;21.50;56.80;;;;;;5072049;28;19927;-69
2022/09/15 15:28:50;;;;;;;;;;;21.50;56.80;;;;;;5071030;28;19928;-71
2022/09/15 15:31:19;;;;;;;;;;;21.50;56.80;;;;;;5072261;28;20455;-68
2022/09/15 15:33:47;;;;;;;;;;;21.40;56.80;;;;;;5072395;28;19920;-68
2022/09/15 15:36:12;;;;;;;;;;;21.50;56.90;;;;;;5063390;28;20885;-66
2022/09/15 15:38:40;;;;;;;;;;;21.40;56.80;;;;;;5066083;28;19946;-66
2022/09/15 15:41:07;;;;;;;;;;;21.40;56.90;;;;;;5073398;28;20344;-66
2022/09/15 15:43:33;;;;;;;;;;;21.40;56.90;;;;;;5077025;28;19924;-66
2022/09/15 15:46:03;;;;;;;;;;;21.40;56.90;;;;;;5076221;28;19929;-66
2022/09/15 15:48:34;;;;;;;;;;;21.40;56.80;;;;;;5076010;28;20368;-66
2022/09/15 15:51:01;;;;;;;;;;;21.40;56.80;;;;;;5076551;28;20411;-66
2022/09/15 15:53:26;;;;;;;;;;;21.40;56.80;;;;;;5076166;28;20300;-66
2022/09/15 15:55:54;;;;;;;;;;;21.30;56.70;;;;;;5076579;28;19924;-66
2022/09/15 15:58:19;;;;;;;;;;;21.30;56.80;;;;;;5076087;28;19927;-68
2022/09/15 16:00:49;;;;;;;;;;;21.30;57.00;;;;;;5076254;28;20340;-66
2022/09/15 16:03:16;;;;;;;;;;;21.30;57.00;;;;;;5076248;28;19995;-66
2022/09/15 16:05:43;;;;;;;;;;;21.30;57.00;;;;;;5093229;28;19928;-66